Terminal Aerodrome Forecast
Issued by NWS

Home | Current Version | Previous Version | Text Only | Print | Product List | Glossary On
Versions: 1 2 3 4 5 6 7 8 9 10 11 12 13 14 15 16 17 18 19 20 21
000
FTUS41 KPHI 210237 AAB
TAFPNE
TAF AMD
KPNE 210237Z 2103/2124 13007KT P6SM VCSH FEW035 OVC120
      TEMPO 2103/2105 27018G30KT 2SM +TSRA BKN020CB
     FM210500 24009KT P6SM VCSH BKN040
     FM210700 28008KT 6SM BR BKN040
     FM211200 28013G24KT P6SM SCT050=

USA.gov is the U.S. government's official web portal to all federal, state and local government web resources and services.